createdAt,value
2018-04-13T00:00:04.842Z,949.91
2018-04-13T00:15:04.996Z,950.13
2018-04-13T00:30:05.420Z,950.4
2018-04-13T00:45:05.518Z,950.32
2018-04-13T01:00:04.534Z,949.75
2018-04-13T01:15:04.484Z,949.5
2018-04-13T01:30:05.171Z,949.42
2018-04-13T01:45:04.653Z,949.61
2018-04-13T02:00:05.157Z,949.53
2018-04-13T02:15:04.868Z,950.29
2018-04-13T02:30:04.982Z,950.67
2018-04-13T02:45:04.452Z,950.94
2018-04-13T03:00:04.897Z,951.16
2018-04-13T03:15:04.934Z,951.32
2018-04-13T03:30:04.738Z,951.46
2018-04-13T03:45:04.877Z,951.92
2018-04-13T04:00:04.935Z,952.22
2018-04-13T04:15:04.396Z,952.3
2018-04-13T04:30:04.830Z,952.82
2018-04-13T04:45:05.197Z,953.53
2018-04-13T05:00:04.615Z,953.58
2018-04-13T05:15:05.029Z,954.1
2018-04-13T05:30:05.262Z,953.85
2018-04-13T05:45:04.782Z,953.72
2018-04-13T06:00:04.672Z,953.88
2018-04-13T06:15:04.591Z,953.47
2018-04-13T06:30:04.758Z,953.77
2018-04-13T06:45:05.179Z,953.09
2018-04-13T07:00:04.528Z,953.12
2018-04-13T07:15:05.003Z,953.28
2018-04-13T07:30:04.617Z,953.36
2018-04-13T07:45:05.232Z,952.87
2018-04-13T08:00:05.291Z,952.93
2018-04-13T08:15:04.641Z,951.98
2018-04-13T08:30:05.245Z,952.08
2018-04-13T08:45:04.611Z,952.9
2018-04-13T09:00:05.077Z,951.96
2018-04-13T09:15:05.042Z,955.79
2018-04-13T09:30:04.780Z,952.32
2018-04-13T09:45:04.650Z,957.82
2018-04-13T10:00:04.518Z,953.72
2018-04-13T10:15:04.435Z,955.78
2018-04-13T10:30:04.524Z,956.74
2018-04-13T10:45:04.473Z,956.55
2018-04-13T11:00:04.368Z,957.34
2018-04-13T11:15:04.741Z,957.73
2018-04-13T11:30:04.389Z,957.97
2018-04-13T11:45:05.302Z,957.7
2018-04-13T12:00:05.298Z,957.94
2018-04-13T12:15:05.284Z,958.93
2018-04-13T12:30:04.901Z,958.63
2018-04-13T12:45:05.245Z,958.47
2018-04-13T13:00:05.236Z,958.88
2018-04-13T13:15:05.156Z,959.54
2018-04-13T13:30:05.245Z,960.61
2018-04-13T13:45:05.123Z,954.53
2018-04-13T14:00:05.032Z,956.06
2018-04-13T14:15:04.864Z,956.63
2018-04-13T14:30:05.018Z,957.55
2018-04-13T14:45:04.417Z,957.36
2018-04-13T15:00:05.271Z,957.2
2018-04-13T15:15:05.105Z,956.87
2018-04-13T15:30:05.247Z,956.74
2018-04-13T15:45:05.118Z,956.82
2018-04-13T16:00:04.515Z,957.23
2018-04-13T16:15:05.091Z,957.15
2018-04-13T16:30:04.877Z,957.12
2018-04-13T16:45:05.285Z,956.55
2018-04-13T17:00:05.388Z,956.82
2018-04-13T17:15:04.531Z,957.25
2018-04-13T17:30:05.121Z,957.36
2018-04-13T17:45:05.309Z,957.91
2018-04-13T18:00:04.798Z,959.29
2018-04-13T18:15:04.712Z,960.3
2018-04-13T18:30:04.990Z,961.39
2018-04-13T18:45:04.428Z,962.15
2018-04-13T19:00:04.921Z,962.86
2018-04-13T19:15:05.281Z,963.57
2018-04-13T19:30:04.374Z,964
2018-04-13T19:45:05.271Z,964.14
2018-04-13T20:00:04.725Z,957.39
2018-04-13T20:15:04.671Z,957.61
2018-04-13T20:30:04.377Z,958.26
2018-04-13T20:45:04.770Z,958.42
2018-04-13T21:00:04.656Z,959.09
2018-04-13T21:15:05.121Z,959.39
2018-04-13T21:30:05.271Z,959.74
2018-04-13T21:45:04.712Z,960.06
2018-04-13T22:00:04.660Z,960.52
2018-04-13T22:15:05.180Z,960.95
2018-04-13T22:30:05.273Z,961.01
2018-04-13T22:45:04.635Z,961.84
2018-04-13T23:00:05.026Z,962.06
2018-04-13T23:15:04.900Z,962.52
2018-04-13T23:30:04.964Z,962.87
2018-04-13T23:45:04.895Z,962.9
